createdAt,value
2019-03-29T00:01:53.621Z,12.27
2019-03-29T00:04:23.531Z,10.30
2019-03-29T00:06:53.434Z,9.30
2019-03-29T00:09:23.356Z,13.30
2019-03-29T00:11:53.251Z,11.87
2019-03-29T00:14:23.541Z,8.60
2019-03-29T00:16:53.588Z,8.03
2019-03-29T00:19:23.511Z,14.27
2019-03-29T00:21:53.406Z,14.03
2019-03-29T00:24:23.367Z,11.10
2019-03-29T00:26:53.429Z,13.30
2019-03-29T00:29:23.273Z,12.80
2019-03-29T00:31:53.199Z,9.57
2019-03-29T00:34:23.109Z,10.13
2019-03-29T00:36:53.008Z,13.40
2019-03-29T00:39:22.965Z,12.43
2019-03-29T00:41:52.860Z,10.17
2019-03-29T00:44:22.783Z,11.33
2019-03-29T00:46:52.684Z,11.03
2019-03-29T00:49:22.602Z,8.67
2019-03-29T00:51:52.484Z,6.90
2019-03-29T00:54:22.401Z,7.80
2019-03-29T00:56:52.346Z,6.83
2019-03-29T00:59:22.274Z,5.33
2019-03-29T01:01:52.337Z,4.77
2019-03-29T01:04:22.934Z,6.80
2019-03-29T01:06:52.821Z,6.50
2019-03-29T01:09:22.738Z,6.37
2019-03-29T01:11:52.620Z,5.50
2019-03-29T01:14:22.532Z,4.63
2019-03-29T01:16:53.195Z,8.33
2019-03-29T01:19:23.836Z,6.63
2019-03-29T01:21:53.730Z,11.50
2019-03-29T01:24:23.682Z,10.43
2019-03-29T01:26:53.573Z,9.63
2019-03-29T01:29:23.502Z,8.70
2019-03-29T01:31:53.383Z,10.70
2019-03-29T01:34:23.357Z,10.43
2019-03-29T01:36:53.837Z,12.33
2019-03-29T01:39:23.876Z,11.03
2019-03-29T01:41:53.764Z,8.60
2019-03-29T01:44:23.692Z,7.00
2019-03-29T01:46:53.584Z,5.97
2019-03-29T01:49:23.503Z,7.20
2019-03-29T01:51:54.033Z,6.90
2019-03-29T01:54:24.169Z,7.50
2019-03-29T01:56:54.055Z,5.80
2019-03-29T01:59:24.055Z,8.60
2019-03-29T02:01:54.948Z,6.00
2019-03-29T02:04:24.964Z,5.30
2019-03-29T02:06:54.860Z,5.73
2019-03-29T02:09:24.819Z,11.63
2019-03-29T02:11:54.708Z,5.33
2019-03-29T02:14:24.624Z,4.90
2019-03-29T02:16:55.857Z,6.70
2019-03-29T02:19:25.935Z,8.17
2019-03-29T02:21:55.828Z,6.10
2019-03-29T02:24:25.879Z,7.63
2019-03-29T02:26:55.754Z,6.13
2019-03-29T02:29:25.667Z,8.03
2019-03-29T02:31:56.632Z,8.03
2019-03-29T02:34:26.998Z,6.70
2019-03-29T02:36:56.899Z,8.83
2019-03-29T02:39:27.285Z,7.00
2019-03-29T02:41:57.278Z,7.20
2019-03-29T02:44:27.154Z,6.33
2019-03-29T02:46:57.072Z,5.73
2019-03-29T02:49:26.964Z,9.77
2019-03-29T02:51:56.881Z,8.67
2019-03-29T02:54:26.794Z,7.40
2019-03-29T02:56:56.707Z,7.50
2019-03-29T02:59:26.613Z,8.27
2019-03-29T03:01:56.520Z,8.40
2019-03-29T03:04:26.404Z,5.23
2019-03-29T03:06:57.019Z,7.30
2019-03-29T03:09:26.910Z,6.87
2019-03-29T03:11:56.816Z,7.77
2019-03-29T03:14:26.710Z,16.13
2019-03-29T03:16:56.624Z,9.97
2019-03-29T03:19:26.527Z,9.03
2019-03-29T03:21:56.438Z,9.30
2019-03-29T03:24:26.352Z,8.20
2019-03-29T03:26:56.253Z,7.93
2019-03-29T03:29:26.205Z,7.33
2019-03-29T03:31:56.279Z,10.33
2019-03-29T03:34:26.257Z,8.00
2019-03-29T03:36:56.173Z,8.93
2019-03-29T03:39:31.946Z,10.00
2019-03-29T03:41:57.643Z,7.30
2019-03-29T03:44:27.538Z,8.43
2019-03-29T03:46:57.457Z,4.77
2019-03-29T03:49:27.357Z,9.77
2019-03-29T03:51:57.270Z,9.73
2019-03-29T03:54:27.174Z,5.00
2019-03-29T03:56:57.277Z,6.30
2019-03-29T03:59:29.033Z,6.00
2019-03-29T04:01:58.944Z,5.67
2019-03-29T04:04:28.837Z,4.90
2019-03-29T04:06:58.796Z,8.00
2019-03-29T04:09:28.691Z,5.77
2019-03-29T04:11:58.603Z,6.93
2019-03-29T04:14:28.492Z,5.47
2019-03-29T04:16:58.417Z,6.00
2019-03-29T04:19:28.289Z,9.30
2019-03-29T04:21:58.300Z,13.50
2019-03-29T04:24:28.226Z,9.60
2019-03-29T04:26:58.132Z,14.90
2019-03-29T04:29:28.033Z,14.67
2019-03-29T04:31:57.955Z,12.10
2019-03-29T04:34:27.845Z,16.87
2019-03-29T04:36:57.767Z,13.30
2019-03-29T04:39:27.663Z,11.13
2019-03-29T04:41:57.584Z,14.77
2019-03-29T04:44:36.759Z,13.30
2019-03-29T04:47:06.657Z,12.67
2019-03-29T04:49:36.531Z,12.00
2019-03-29T04:52:06.431Z,17.23
2019-03-29T04:54:36.303Z,13.10
2019-03-29T04:57:06.199Z,15.60
2019-03-29T04:59:36.071Z,13.23
2019-03-29T05:02:05.991Z,9.30
2019-03-29T05:04:35.855Z,9.80
2019-03-29T05:07:05.759Z,11.00
2019-03-29T05:09:35.631Z,11.97
2019-03-29T05:12:05.545Z,13.13
2019-03-29T05:14:35.415Z,14.67
2019-03-29T05:17:05.328Z,12.37
2019-03-29T05:19:35.195Z,15.37
2019-03-29T05:22:05.101Z,17.20
2019-03-29T05:24:35.002Z,10.57
2019-03-29T05:27:04.879Z,9.20
2019-03-29T05:29:34.775Z,18.33
2019-03-29T05:32:04.644Z,12.40
2019-03-29T05:34:34.550Z,11.47
2019-03-29T05:37:04.424Z,22.30
2019-03-29T05:39:34.319Z,21.17
2019-03-29T05:42:04.195Z,18.90
2019-03-29T05:44:34.091Z,18.77
2019-03-29T05:47:03.894Z,17.53
2019-03-29T05:49:33.877Z,18.57
2019-03-29T05:52:03.748Z,17.43
2019-03-29T05:54:33.692Z,14.50
2019-03-29T05:57:03.563Z,20.13
2019-03-29T05:59:33.463Z,22.17
2019-03-29T06:02:03.339Z,16.80
2019-03-29T06:04:33.235Z,15.33
2019-03-29T06:07:03.116Z,19.43
2019-03-29T06:09:34.992Z,22.27
2019-03-29T06:12:04.536Z,19.63
2019-03-29T06:14:34.439Z,20.70
2019-03-29T06:17:04.314Z,18.17
2019-03-29T06:19:34.611Z,20.83
2019-03-29T06:22:04.478Z,21.20
2019-03-29T06:24:34.394Z,20.27
2019-03-29T06:27:04.267Z,15.60
2019-03-29T06:29:34.164Z,20.30
2019-03-29T06:32:04.039Z,17.00
2019-03-29T06:34:33.936Z,19.30
2019-03-29T06:37:04.307Z,18.63
2019-03-29T06:39:34.399Z,19.77
2019-03-29T06:42:04.270Z,21.00
2019-03-29T06:44:34.175Z,22.73
2019-03-29T06:47:04.067Z,19.33
2019-03-29T06:49:34.040Z,20.60
2019-03-29T06:52:03.847Z,19.10
2019-03-29T06:54:33.747Z,21.20
2019-03-29T06:57:03.627Z,22.97
2019-03-29T06:59:33.543Z,24.87
2019-03-29T07:02:03.423Z,21.60
2019-03-29T07:04:33.323Z,20.90
2019-03-29T07:07:03.204Z,16.57
2019-03-29T07:09:33.105Z,17.17
2019-03-29T07:12:02.979Z,21.20
2019-03-29T07:14:32.883Z,17.73
2019-03-29T07:17:02.790Z,17.33
2019-03-29T07:19:32.687Z,16.10
2019-03-29T07:22:02.571Z,13.67
2019-03-29T07:24:32.496Z,17.17
2019-03-29T07:27:02.389Z,16.03
2019-03-29T07:29:32.284Z,18.60
2019-03-29T07:32:02.171Z,15.40
2019-03-29T07:34:32.071Z,16.90
2019-03-29T07:37:01.954Z,17.30
2019-03-29T07:39:31.862Z,13.70
2019-03-29T07:42:01.730Z,11.40
2019-03-29T07:44:31.627Z,11.27
2019-03-29T07:47:01.543Z,16.73
2019-03-29T07:49:31.462Z,13.60
2019-03-29T07:52:01.342Z,12.67
2019-03-29T07:54:31.246Z,15.30
2019-03-29T07:57:01.130Z,13.23
2019-03-29T07:59:31.036Z,12.50
2019-03-29T08:02:02.368Z,15.13
2019-03-29T08:04:32.427Z,11.70
2019-03-29T08:07:02.305Z,9.20
2019-03-29T08:09:32.209Z,11.57
2019-03-29T08:12:02.092Z,11.50
2019-03-29T08:14:31.995Z,9.30
2019-03-29T08:17:01.871Z,5.43
2019-03-29T08:19:31.771Z,4.97
2019-03-29T08:22:01.650Z,2.87
2019-03-29T08:24:31.562Z,2.40
2019-03-29T08:27:01.446Z,1.97
2019-03-29T08:29:31.595Z,4.27
2019-03-29T08:32:01.511Z,5.47
2019-03-29T08:34:31.410Z,7.30
2019-03-29T08:37:01.286Z,6.43
2019-03-29T08:39:31.180Z,6.90
2019-03-29T08:42:01.258Z,4.80
2019-03-29T08:44:31.141Z,6.57
2019-03-29T08:47:01.032Z,5.50
2019-03-29T08:49:30.903Z,4.60
2019-03-29T08:52:00.799Z,5.03
2019-03-29T08:54:30.683Z,3.97
2019-03-29T08:57:00.578Z,6.20
2019-03-29T08:59:30.458Z,4.50
2019-03-29T09:02:00.361Z,5.23
2019-03-29T09:04:30.222Z,4.40
2019-03-29T09:07:00.126Z,4.13
2019-03-29T09:09:30.847Z,5.80
2019-03-29T09:12:13.679Z,3.53
2019-03-29T09:14:32.566Z,7.40
2019-03-29T09:17:02.473Z,4.53
2019-03-29T09:19:32.340Z,5.50
2019-03-29T09:22:02.235Z,4.77
2019-03-29T09:24:32.136Z,4.23
2019-03-29T09:27:02.023Z,4.03
2019-03-29T09:29:31.899Z,4.73
2019-03-29T09:32:01.811Z,4.20
2019-03-29T09:34:31.684Z,4.40
2019-03-29T09:37:01.585Z,4.13
2019-03-29T09:39:31.455Z,3.80
2019-03-29T09:42:01.351Z,8.20
2019-03-29T09:44:31.229Z,5.60
2019-03-29T09:47:01.123Z,3.67
2019-03-29T09:49:31.007Z,4.43
2019-03-29T09:52:00.976Z,5.00
2019-03-29T09:54:30.848Z,4.13
2019-03-29T09:57:00.744Z,5.03
2019-03-29T09:59:30.610Z,3.57
2019-03-29T10:02:00.435Z,2.90
2019-03-29T10:04:30.307Z,4.43
2019-03-29T10:07:00.203Z,2.90
2019-03-29T10:09:30.080Z,3.40
2019-03-29T10:11:59.975Z,3.93
2019-03-29T10:14:33.142Z,3.57
2019-03-29T10:17:01.392Z,2.97
2019-03-29T10:19:31.259Z,3.60
2019-03-29T10:22:01.157Z,3.30
2019-03-29T10:24:31.051Z,5.70
2019-03-29T10:27:01.031Z,3.70
2019-03-29T10:29:30.910Z,4.30
2019-03-29T10:32:00.803Z,5.27
2019-03-29T10:34:30.688Z,3.87
2019-03-29T10:37:00.587Z,6.33
2019-03-29T10:39:30.471Z,3.67
2019-03-29T10:42:00.487Z,3.60
2019-03-29T10:44:30.367Z,3.70
2019-03-29T10:47:00.267Z,3.70
2019-03-29T10:49:30.159Z,3.00
2019-03-29T10:52:00.060Z,4.13
2019-03-29T10:54:29.939Z,2.63
2019-03-29T10:56:59.832Z,5.13
2019-03-29T10:59:29.707Z,3.37
2019-03-29T11:01:59.616Z,3.87
2019-03-29T11:04:31.934Z,5.07
2019-03-29T11:07:01.024Z,4.07
2019-03-29T11:09:30.904Z,4.07
2019-03-29T11:12:00.798Z,3.57
2019-03-29T11:14:30.677Z,4.30
2019-03-29T11:17:01.445Z,3.80
2019-03-29T11:19:31.326Z,3.60
2019-03-29T11:22:01.220Z,4.23
2019-03-29T11:24:31.117Z,3.60
2019-03-29T11:27:01.110Z,3.60
2019-03-29T11:29:30.986Z,3.90
2019-03-29T11:32:00.885Z,3.93
2019-03-29T11:34:30.790Z,3.60
2019-03-29T11:37:00.691Z,4.77
2019-03-29T11:39:30.563Z,3.33
2019-03-29T11:42:03.279Z,4.20
2019-03-29T11:44:32.002Z,3.73
2019-03-29T11:47:01.904Z,3.93
2019-03-29T11:49:31.779Z,2.83
2019-03-29T11:52:01.689Z,2.57
2019-03-29T11:54:31.579Z,3.50
2019-03-29T11:57:01.530Z,3.43
2019-03-29T11:59:31.441Z,3.40
2019-03-29T12:02:01.302Z,4.03
2019-03-29T12:04:31.195Z,3.40
2019-03-29T12:07:03.590Z,4.00
2019-03-29T12:09:32.621Z,3.53
2019-03-29T12:12:02.570Z,3.33
2019-03-29T12:14:32.440Z,3.20
2019-03-29T12:17:02.344Z,3.60
2019-03-29T12:19:32.632Z,2.90
2019-03-29T12:22:02.498Z,3.57
2019-03-29T12:24:32.411Z,3.30
2019-03-29T12:27:02.278Z,2.47
2019-03-29T12:29:32.240Z,4.03
2019-03-29T12:32:02.055Z,3.60
2019-03-29T12:34:31.951Z,3.80
2019-03-29T12:37:01.824Z,3.40
2019-03-29T12:39:31.724Z,3.90
2019-03-29T12:42:01.583Z,4.60
2019-03-29T12:44:31.475Z,4.33
2019-03-29T12:47:01.347Z,3.73
2019-03-29T12:49:31.246Z,4.50
2019-03-29T12:52:01.119Z,4.40
2019-03-29T12:54:31.020Z,3.50
2019-03-29T12:57:00.994Z,3.47
2019-03-29T12:59:32.877Z,3.87
2019-03-29T13:02:02.422Z,4.33
2019-03-29T13:04:32.315Z,3.47
2019-03-29T13:07:02.191Z,3.73
2019-03-29T13:09:32.096Z,3.87
2019-03-29T13:12:01.972Z,3.77
2019-03-29T13:14:31.880Z,3.53
2019-03-29T13:17:02.885Z,3.40
2019-03-29T13:19:32.975Z,5.03
2019-03-29T13:22:02.845Z,4.07
2019-03-29T13:24:32.804Z,4.30
2019-03-29T13:27:02.719Z,4.40
2019-03-29T13:29:32.632Z,3.90
2019-03-29T13:32:02.508Z,4.57
2019-03-29T13:34:32.411Z,4.07
2019-03-29T13:37:02.283Z,3.80
2019-03-29T13:39:32.172Z,3.90
2019-03-29T13:42:02.064Z,4.30
2019-03-29T13:44:31.946Z,4.60
2019-03-29T13:47:01.847Z,4.67
2019-03-29T13:49:31.715Z,3.67
2019-03-29T13:52:01.615Z,4.57
2019-03-29T13:54:31.484Z,2.53
2019-03-29T13:57:01.378Z,2.70
2019-03-29T13:59:31.893Z,3.70
2019-03-29T14:02:01.955Z,2.73
2019-03-29T14:04:31.829Z,3.37
2019-03-29T14:07:01.724Z,3.37
2019-03-29T14:09:31.604Z,4.07
2019-03-29T14:12:01.521Z,4.47
2019-03-29T14:14:38.141Z,4.10
2019-03-29T14:17:03.452Z,5.20
2019-03-29T14:19:33.334Z,4.07
2019-03-29T14:22:03.227Z,2.80
2019-03-29T14:24:33.118Z,2.83
2019-03-29T14:27:03.014Z,3.13
2019-03-29T14:29:32.895Z,3.03
2019-03-29T14:32:02.792Z,4.33
2019-03-29T14:34:32.663Z,4.80
2019-03-29T14:37:02.588Z,3.03
2019-03-29T14:39:32.457Z,3.13
2019-03-29T14:42:02.352Z,3.07
2019-03-29T14:44:32.223Z,3.80
2019-03-29T14:47:02.125Z,3.20
2019-03-29T14:49:31.991Z,5.27
2019-03-29T14:52:01.895Z,3.43
2019-03-29T14:54:31.772Z,4.00
2019-03-29T14:57:01.664Z,3.70
2019-03-29T14:59:31.545Z,3.27
2019-03-29T15:02:01.437Z,4.13
2019-03-29T15:04:31.311Z,4.77
2019-03-29T15:07:01.210Z,3.60
2019-03-29T15:09:31.199Z,4.07
2019-03-29T15:12:01.087Z,3.37
2019-03-29T15:14:30.959Z,3.67
2019-03-29T15:17:00.859Z,4.07
2019-03-29T15:19:30.745Z,4.90
2019-03-29T15:22:00.647Z,4.23
2019-03-29T15:24:30.555Z,3.57
2019-03-29T15:27:00.452Z,3.97
2019-03-29T15:29:30.333Z,3.73
2019-03-29T15:32:00.227Z,6.10
2019-03-29T15:34:30.116Z,2.83
2019-03-29T15:37:00.008Z,4.40
2019-03-29T15:39:29.883Z,4.00
2019-03-29T15:41:59.775Z,4.90
2019-03-29T15:44:29.654Z,3.90
2019-03-29T15:46:59.545Z,5.07
2019-03-29T15:49:29.462Z,4.77
2019-03-29T15:51:59.357Z,4.87
2019-03-29T15:54:29.236Z,5.63
2019-03-29T15:56:59.135Z,4.70
2019-03-29T15:59:29.011Z,5.30
2019-03-29T16:01:58.918Z,5.47
2019-03-29T16:04:28.795Z,4.77
2019-03-29T16:06:58.697Z,5.97
2019-03-29T16:09:28.639Z,4.33
2019-03-29T16:11:58.540Z,4.17
2019-03-29T16:14:28.417Z,3.93
2019-03-29T16:16:58.337Z,4.40
2019-03-29T16:19:28.207Z,4.40
2019-03-29T16:21:58.110Z,3.57
2019-03-29T16:24:28.003Z,4.63
2019-03-29T16:26:57.899Z,5.20
2019-03-29T16:29:27.775Z,5.60
2019-03-29T16:31:57.682Z,4.57
2019-03-29T16:34:27.558Z,5.00
2019-03-29T16:36:57.449Z,6.17
2019-03-29T16:39:27.323Z,5.50
2019-03-29T16:41:57.199Z,5.90
2019-03-29T16:44:27.098Z,6.03
2019-03-29T16:46:56.969Z,4.67
2019-03-29T16:49:26.866Z,5.97
2019-03-29T16:51:56.740Z,5.37
2019-03-29T16:54:26.645Z,6.33
2019-03-29T16:56:56.503Z,5.80
2019-03-29T16:59:26.403Z,5.73
2019-03-29T17:01:56.263Z,7.53
2019-03-29T17:04:26.168Z,5.03
2019-03-29T17:06:56.027Z,4.00
2019-03-29T17:09:25.928Z,4.33
2019-03-29T17:11:55.815Z,4.33
2019-03-29T17:14:25.709Z,6.20
2019-03-29T17:16:55.611Z,6.17
2019-03-29T17:19:25.503Z,4.73
2019-03-29T17:21:55.431Z,4.57
2019-03-29T17:24:25.386Z,2.93
2019-03-29T17:26:55.262Z,3.07
2019-03-29T17:29:25.158Z,3.03
2019-03-29T17:31:55.032Z,2.53
2019-03-29T17:34:24.955Z,2.37
2019-03-29T17:36:54.831Z,2.93
2019-03-29T17:39:24.732Z,2.07
2019-03-29T17:41:54.603Z,2.60
2019-03-29T17:44:24.495Z,1.90
2019-03-29T17:46:54.419Z,3.20
2019-03-29T17:49:24.311Z,3.10
2019-03-29T17:51:54.182Z,2.80
2019-03-29T17:54:24.084Z,2.73
2019-03-29T17:56:53.951Z,2.83
2019-03-29T17:59:23.835Z,2.90
2019-03-29T18:01:53.712Z,2.63
2019-03-29T18:04:23.590Z,3.10
2019-03-29T18:06:53.483Z,4.10
2019-03-29T18:09:23.363Z,4.90
2019-03-29T18:11:53.263Z,3.80
2019-03-29T18:14:23.127Z,4.37
2019-03-29T18:16:53.026Z,5.13
2019-03-29T18:19:22.895Z,3.00
2019-03-29T18:21:52.795Z,3.40
2019-03-29T18:24:22.690Z,3.27
2019-03-29T18:26:52.595Z,3.00
2019-03-29T18:29:22.475Z,3.27
2019-03-29T18:31:52.762Z,3.30
2019-03-29T18:34:22.739Z,2.87
2019-03-29T18:36:54.902Z,2.63
2019-03-29T18:39:25.092Z,3.83
2019-03-29T18:41:54.984Z,3.60
2019-03-29T18:44:24.859Z,3.43
2019-03-29T18:46:54.755Z,2.63
2019-03-29T18:49:24.628Z,3.17
2019-03-29T18:51:54.555Z,3.53
2019-03-29T18:54:24.432Z,5.00
2019-03-29T18:56:54.320Z,3.50
2019-03-29T18:59:24.192Z,3.90
2019-03-29T19:01:54.083Z,4.53
2019-03-29T19:04:23.954Z,3.20
2019-03-29T19:06:53.839Z,3.50
2019-03-29T19:09:23.712Z,4.20
2019-03-29T19:11:53.599Z,3.43
2019-03-29T19:14:23.462Z,3.33
2019-03-29T19:16:59.092Z,4.30
2019-03-29T19:19:24.883Z,5.07
2019-03-29T19:21:54.806Z,3.83
2019-03-29T19:24:24.715Z,4.53
2019-03-29T19:26:54.607Z,3.50
2019-03-29T19:29:24.530Z,3.87
2019-03-29T19:31:56.134Z,3.37
2019-03-29T19:34:26.160Z,4.00
2019-03-29T19:36:56.058Z,3.10
2019-03-29T19:39:25.942Z,3.37
2019-03-29T19:41:55.829Z,3.77
2019-03-29T19:44:25.687Z,4.03
2019-03-29T19:46:55.575Z,4.10
2019-03-29T19:49:25.451Z,3.57
2019-03-29T19:51:55.339Z,5.00
2019-03-29T19:54:25.226Z,5.83
2019-03-29T19:56:55.140Z,3.93
2019-03-29T19:59:24.988Z,4.70
2019-03-29T20:01:54.907Z,3.60
2019-03-29T20:04:24.774Z,3.60
2019-03-29T20:06:54.668Z,4.50
2019-03-29T20:09:24.543Z,3.70
2019-03-29T20:11:54.430Z,4.00
2019-03-29T20:14:24.312Z,4.03
2019-03-29T20:16:55.365Z,3.40
2019-03-29T20:19:25.375Z,4.33
2019-03-29T20:21:55.327Z,3.00
2019-03-29T20:24:25.223Z,3.40
2019-03-29T20:26:55.108Z,4.20
2019-03-29T20:29:24.979Z,3.00
2019-03-29T20:31:54.876Z,4.50
2019-03-29T20:34:24.743Z,3.30
2019-03-29T20:36:54.631Z,3.63
2019-03-29T20:39:24.500Z,4.43
2019-03-29T20:41:54.403Z,4.20
2019-03-29T20:44:24.276Z,4.90
2019-03-29T20:46:54.167Z,4.87
2019-03-29T20:49:24.043Z,3.93
2019-03-29T20:51:53.942Z,3.50
2019-03-29T20:54:23.810Z,4.60
2019-03-29T20:56:53.712Z,4.10
2019-03-29T20:59:23.578Z,4.53
2019-03-29T21:01:53.474Z,4.50
2019-03-29T21:04:23.343Z,3.60
2019-03-29T21:06:53.260Z,9.40
2019-03-29T21:09:23.131Z,4.33
2019-03-29T21:11:53.003Z,4.20
2019-03-29T21:14:22.904Z,4.13
2019-03-29T21:16:52.791Z,4.23
2019-03-29T21:19:22.689Z,2.83
2019-03-29T21:21:52.573Z,3.43
2019-03-29T21:24:22.474Z,5.30
2019-03-29T21:26:52.412Z,4.23
2019-03-29T21:29:22.311Z,5.93
2019-03-29T21:31:52.183Z,7.20
2019-03-29T21:34:22.079Z,5.50
2019-03-29T21:36:51.964Z,6.80
2019-03-29T21:39:21.863Z,6.63
2019-03-29T21:41:51.736Z,4.50
2019-03-29T21:44:21.630Z,5.90
2019-03-29T21:46:51.503Z,5.53
2019-03-29T21:49:21.395Z,6.50
2019-03-29T21:51:51.270Z,4.40
2019-03-29T21:54:21.178Z,10.27
2019-03-29T21:56:51.055Z,5.20
2019-03-29T21:59:20.959Z,5.03
2019-03-29T22:01:50.826Z,4.93
2019-03-29T22:04:20.726Z,4.40
2019-03-29T22:06:50.590Z,9.30
2019-03-29T22:09:20.479Z,5.47
2019-03-29T22:11:50.366Z,4.60
2019-03-29T22:14:20.246Z,6.73
2019-03-29T22:16:50.148Z,6.13
2019-03-29T22:19:20.043Z,5.80
2019-03-29T22:21:49.919Z,5.20
2019-03-29T22:24:19.926Z,8.50
2019-03-29T22:26:49.806Z,6.43
2019-03-29T22:29:19.706Z,7.60
2019-03-29T22:31:49.580Z,5.13
2019-03-29T22:34:19.474Z,5.87
2019-03-29T22:36:49.360Z,5.50
2019-03-29T22:39:19.251Z,4.93
2019-03-29T22:41:49.118Z,4.00
2019-03-29T22:44:19.007Z,5.00
2019-03-29T22:46:48.884Z,6.50
2019-03-29T22:49:18.780Z,4.53
2019-03-29T22:51:48.650Z,5.70
2019-03-29T22:54:18.546Z,3.90
2019-03-29T22:56:48.411Z,6.37
2019-03-29T22:59:18.315Z,4.83
2019-03-29T23:01:48.707Z,4.63
2019-03-29T23:04:18.610Z,6.00
2019-03-29T23:06:48.479Z,5.63
2019-03-29T23:09:18.372Z,5.17
2019-03-29T23:11:48.243Z,4.40
2019-03-29T23:14:18.143Z,7.37
2019-03-29T23:16:48.014Z,5.43
2019-03-29T23:19:17.911Z,4.67
2019-03-29T23:21:47.791Z,4.10
2019-03-29T23:24:17.725Z,6.70
2019-03-29T23:26:47.613Z,4.03
2019-03-29T23:29:17.479Z,4.03
2019-03-29T23:31:47.455Z,4.93
2019-03-29T23:34:17.339Z,3.90
2019-03-29T23:36:47.241Z,4.40
2019-03-29T23:39:17.119Z,5.53
2019-03-29T23:41:47.193Z,4.87
2019-03-29T23:44:17.090Z,4.10
2019-03-29T23:46:47.195Z,5.87
2019-03-29T23:49:21.221Z,5.63
2019-03-29T23:51:48.698Z,6.40
2019-03-29T23:54:18.608Z,3.87
2019-03-29T23:56:48.510Z,5.53
2019-03-29T23:59:18.383Z,6.67
